Time;durP1;ratioP1;P1;durP2;ratioP2;P2;SDS_P1;SDS_P2;PMS_P1;PMS_P2;Temp;Humidity;BMP_temperature;BMP_pressure;BME280_temperature;BME280_humidity;BME280_pressure;Samples;Min_cycle;Max_cycle;Signal;HPM_P1;HPM_P2
2021/12/17 00:00:59;;;;;;;28.55;21.88;;;;;;;7.29;95.62;103797.75;6245425;23;20032;-88
2021/12/17 00:03:39;;;;;;;30.33;23.40;;;;;;;7.16;95.35;103784.38;6218656;23;20387;-87
2021/12/17 00:08:38;;;;;;;32.70;23.75;;;;;;;7.32;95.84;103791.22;6255519;23;20028;-88
2021/12/17 00:11:07;;;;;;;30.25;23.17;;;;;;;7.45;95.50;103808.19;6245269;23;20032;-88
2021/12/17 00:13:34;;;;;;;31.23;24.40;;;;;;;7.44;95.26;103794.81;6218163;23;20392;-88
2021/12/17 00:16:00;;;;;;;29.35;22.75;;;;;;;7.54;95.44;103804.78;6218355;23;20000;-87
2021/12/17 00:18:35;;;;;;;32.17;23.35;;;;;;;7.65;95.17;103821.97;6193406;23;20008;-87
2021/12/17 00:40:30;;;;;;;31.33;24.55;;;;;;;7.79;95.99;103805.47;6245174;23;20087;-87
2021/12/17 00:48:36;;;;;;;32.10;24.35;;;;;;;7.93;95.92;103803.50;6245019;23;20015;-87
2021/12/17 00:52:01;;;;;;;32.40;24.00;;;;;;;7.86;95.88;103801.28;6195125;23;20043;-87
2021/12/17 00:54:07;;;;;;;33.17;24.27;;;;;;;7.93;96.18;103804.38;6238861;23;20511;-87
2021/12/17 00:56:35;;;;;;;30.35;23.25;;;;;;;7.94;95.10;103807.91;6216144;23;20034;-87
2021/12/17 00:59:01;;;;;;;31.65;23.85;;;;;;;7.73;95.53;103771.69;6245143;23;20427;-87
2021/12/17 01:01:26;;;;;;;33.63;24.48;;;;;;;7.80;95.57;103780.16;6244472;23;20007;-87
2021/12/17 01:03:53;;;;;;;32.22;24.27;;;;;;;8.02;95.60;103810.88;6217917;23;20008;-87
2021/12/17 01:06:22;;;;;;;31.10;24.08;;;;;;;7.80;95.35;103766.66;6244777;23;20095;-87
2021/12/17 01:08:54;;;;;;;30.83;23.55;;;;;;;7.82;95.16;103763.81;6244850;23;20367;-87
2021/12/17 01:11:20;;;;;;;;;;;;;;;8.15;94.39;103806.16;6218079;23;20019;-87
2021/12/17 01:13:45;;;;;;;31.15;23.70;;;;;;;8.03;95.17;103793.63;6244502;23;19919;-87
2021/12/17 01:16:14;;;;;;;29.63;23.98;;;;;;;8.10;95.23;103800.25;6217846;23;20004;-87
2021/12/17 01:21:37;;;;;;;30.08;22.85;;;;;;;8.04;94.85;103785.41;6217094;23;20004;-87
2021/12/17 01:24:51;;;;;;;29.50;23.08;;;;;;;7.75;94.69;103733.75;6218248;23;20008;-88
2021/12/17 01:35:21;;;;;;;32.08;24.15;;;;;;;8.16;94.91;103779.97;6244608;23;20138;-87
2021/12/17 01:43:13;;;;;;;31.52;24.15;;;;;;;8.31;94.72;103792.22;6244723;23;20019;-88
2021/12/17 01:45:40;;;;;;;34.60;26.00;;;;;;;8.30;94.83;103789.63;6218250;23;20424;-87
2021/12/17 01:48:11;;;;;;;30.50;23.15;;;;;;;8.10;94.78;103759.69;6193162;23;20000;-87
2021/12/17 02:01:40;;;;;;;28.48;22.58;;;;;;;8.29;94.15;103791.47;6222009;23;20023;-88
2021/12/17 02:04:06;;;;;;;29.52;22.25;;;;;;;8.25;94.35;103785.47;6244501;23;20011;-87
2021/12/17 02:06:35;;;;;;;28.65;22.77;;;;;;;8.16;94.39;103777.25;6243033;23;20083;-87
2021/12/17 02:09:03;;;;;;;30.23;22.25;;;;;;;8.03;94.30;103758.47;6169561;23;20004;-87
2021/12/17 02:32:26;;;;;;;32.97;23.97;;;;;;;8.18;94.96;103778.88;6254630;23;20012;-87
2021/12/17 02:35:19;;;;;;;32.10;23.23;;;;;;;8.04;95.05;103754.81;6168858;23;20015;-88
2021/12/17 02:37:45;;;;;;;36.40;25.10;;;;;;;7.86;95.38;103743.66;6243894;23;20008;-87
2021/12/17 02:42:23;;;;;;;31.98;24.00;;;;;;;8.00;95.35;103764.16;6218276;23;20031;-88
2021/12/17 02:45:36;;;;;;;30.85;22.95;;;;;;;8.08;95.08;103769.78;6254032;23;20023;-87
2021/12/17 02:48:09;;;;;;;30.40;22.05;;;;;;;8.30;94.95;103797.75;6218759;23;20427;-87
2021/12/17 02:50:37;;;;;;;31.10;22.58;;;;;;;8.14;94.72;103771.13;6246123;23;20030;-88
2021/12/17 02:53:07;;;;;;;28.55;21.25;;;;;;;8.31;94.89;103796.75;6245887;22;20023;-87
2021/12/17 02:55:35;;;;;;;29.85;21.13;;;;;;;8.28;94.74;103781.63;6246079;23;20024;-88
2021/12/17 02:58:02;;;;;;;28.20;21.27;;;;;;;8.26;94.63;103789.88;6245999;23;20011;-87
2021/12/17 03:00:28;;;;;;;28.27;20.88;;;;;;;8.03;94.86;103753.06;6246070;23;20008;-88
2021/12/17 03:02:55;;;;;;;27.27;21.95;;;;;;;7.99;95.12;103746.22;6193482;23;20004;-87
2021/12/17 03:05:21;;;;;;;33.03;23.67;;;;;;;8.22;95.30;103780.34;6246037;23;20012;-88
2021/12/17 03:07:48;;;;;;;37.40;26.83;;;;;;;8.20;95.87;103789.56;6219020;23;20011;-88
2021/12/17 03:10:15;;;;;;;38.85;26.45;;;;;;;8.18;95.74;103781.56;6245959;23;20058;-88
2021/12/17 03:12:46;;;;;;;37.22;25.98;;;;;;;8.18;95.96;103784.28;6245907;23;20011;-87
2021/12/17 03:18:51;;;;;;;44.17;28.67;;;;;;;8.18;96.20;103796.91;6163652;23;20051;-88
2021/12/17 03:23:45;;;;;;;46.10;30.05;;;;;;;8.13;96.56;103786.47;6223103;23;20339;-88
2021/12/17 03:26:13;;;;;;;49.92;32.25;;;;;;;8.24;96.63;103801.84;6218947;23;20008;-87
2021/12/17 03:28:42;;;;;;;53.70;33.05;;;;;;;8.24;96.95;103809.97;6218844;23;20004;-87
2021/12/17 03:31:09;;;;;;;55.15;32.90;;;;;;;8.26;96.79;103805.28;6218858;23;20008;-87
2021/12/17 03:33:41;;;;;;;55.20;33.45;;;;;;;8.28;97.00;103805.13;6245757;23;20004;-87
2021/12/17 03:36:08;;;;;;;57.95;33.80;;;;;;;8.27;97.01;103807.00;6218899;23;20015;-87
2021/12/17 03:38:33;;;;;;;58.38;33.67;;;;;;;8.23;96.92;103803.66;6193868;23;20008;-88
2021/12/17 03:41:14;;;;;;;59.50;32.90;;;;;;;8.05;97.58;103770.91;6219370;23;20418;-88
2021/12/17 03:43:40;;;;;;;60.92;34.25;;;;;;;7.92;97.31;103742.31;6245590;23;20008;-88
2021/12/17 03:46:09;;;;;;;61.85;34.47;;;;;;;7.87;97.47;103745.41;6245954;23;20438;-88
2021/12/17 03:48:39;;;;;;;65.72;34.67;;;;;;;8.20;97.82;103805.78;6193826;23;20091;-87
2021/12/17 03:51:10;;;;;;;72.30;35.88;;;;;;;8.19;98.08;103804.94;6219924;23;20015;-86
2021/12/17 03:53:36;;;;;;;71.57;34.40;;;;;;;8.03;97.81;103774.72;6245612;23;20004;-87
2021/12/17 03:56:01;;;;;;;69.60;34.90;;;;;;;8.22;97.77;103801.09;6193168;23;20840;-87
2021/12/17 03:58:27;;;;;;;73.70;34.03;;;;;;;7.96;98.05;103766.25;6193526;23;20019;-87
2021/12/17 04:00:52;;;;;;;71.63;34.83;;;;;;;8.18;98.20;103795.09;6193515;23;20008;-87
2021/12/17 04:03:18;;;;;;;74.82;34.30;;;;;;;8.19;98.22;103801.34;6218592;22;20012;-87
2021/12/17 04:05:43;;;;;;;77.47;35.47;;;;;;;8.18;98.37;103800.50;6218521;23;20015;-87
2021/12/17 04:08:09;;;;;;;73.53;34.45;;;;;;;7.96;98.50;103751.88;6245335;23;20014;-87
2021/12/17 04:10:42;;;;;;;80.85;35.63;;;;;;;8.29;98.36;103791.47;6168893;23;20004;-87
2021/12/17 04:16:02;;;;;;;81.57;36.03;;;;;;;8.30;98.26;103795.03;6199964;23;20027;-87
2021/12/17 04:18:28;;;;;;;79.75;35.60;;;;;;;8.26;98.76;103795.28;6195966;23;20095;-87
2021/12/17 04:20:54;;;;;;;86.20;37.03;;;;;;;8.16;98.81;103780.81;6243724;23;20035;-87
2021/12/17 04:23:20;;;;;;;84.60;35.30;;;;;;;8.03;98.72;103767.47;6193240;23;20098;-87
2021/12/17 04:25:48;;;;;;;85.85;36.22;;;;;;;8.10;98.95;103786.75;6218321;23;20007;-87
2021/12/17 04:28:18;;;;;;;84.50;35.75;;;;;;;7.84;99.28;103746.50;6218217;23;20038;-87
2021/12/17 04:30:44;;;;;;;82.88;35.75;;;;;;;8.03;99.43;103778.28;6244640;23;20007;-86
2021/12/17 04:33:10;;;;;;;87.97;36.65;;;;;;;7.82;99.53;103740.34;6243598;23;20431;-87
2021/12/17 04:35:37;;;;;;;84.43;35.63;;;;;;;7.93;99.29;103744.88;6243530;23;20007;-87
2021/12/17 04:38:05;;;;;;;87.50;37.40;;;;;;;8.21;99.24;103797.53;6244954;23;20004;-87
2021/12/17 04:40:31;;;;;;;86.72;36.58;;;;;;;7.85;99.37;103737.41;6218171;23;20066;-88
2021/12/17 04:43:15;;;;;;;86.68;38.10;;;;;;;8.25;99.62;103803.53;6245040;23;20000;-87
2021/12/17 04:59:28;;;;;;;93.60;37.88;;;;;;;8.26;99.59;103786.34;6222220;23;20350;-88
2021/12/17 05:01:53;;;;;;;100.95;38.88;;;;;;;8.24;99.88;103791.88;6193361;23;20008;-86
2021/12/17 05:04:19;;;;;;;97.40;39.97;;;;;;;8.20;99.80;103784.16;6168185;23;20451;-87
2021/12/17 05:06:45;;;;;;;94.78;38.08;;;;;;;8.19;100.00;103786.00;6192568;23;20012;-87
2021/12/17 05:09:23;;;;;;;100.70;38.97;;;;;;;7.95;100.00;103752.88;6244592;23;20427;-87
2021/12/17 05:18:15;;;;;;;99.20;39.60;;;;;;;8.12;100.00;103790.19;6195502;23;20012;-87
2021/12/17 05:20:18;;;;;;;95.07;38.45;;;;;;;8.19;100.00;103802.22;6244831;23;20397;-87
2021/12/17 05:22:44;;;;;;;96.63;40.17;;;;;;;8.18;100.00;103783.41;6195490;23;20008;-88
2021/12/17 05:25:09;;;;;;;95.93;38.40;;;;;;;8.05;100.00;103773.59;6217673;23;20087;-88
2021/12/17 05:27:35;;;;;;;96.38;37.83;;;;;;;8.03;100.00;103766.59;6193003;23;20000;-88
2021/12/17 05:30:01;;;;;;;88.75;35.20;;;;;;;8.07;100.00;103782.47;6192773;23;20386;-88
2021/12/17 05:32:27;;;;;;;86.22;33.80;;;;;;;8.10;100.00;103786.75;6217935;23;20037;-88
2021/12/17 05:34:52;;;;;;;84.05;32.83;;;;;;;8.04;100.00;103774.59;6167864;23;20139;-88
2021/12/17 05:37:20;;;;;;;82.93;34.10;;;;;;;8.16;100.00;103799.75;6217811;23;20008;-88
2021/12/17 05:39:46;;;;;;;85.88;35.15;;;;;;;8.17;100.00;103804.19;6193477;23;20079;-88
2021/12/17 05:42:11;;;;;;;82.82;33.15;;;;;;;8.16;100.00;103802.44;6192833;23;20115;-88
2021/12/17 05:44:37;;;;;;;82.43;33.67;;;;;;;8.16;100.00;103802.44;6244811;23;20015;-88
2021/12/17 05:47:03;;;;;;;81.68;33.38;;;;;;;8.20;100.00;103816.59;6217719;23;20000;-88
2021/12/17 05:49:28;;;;;;;83.10;33.65;;;;;;;8.12;100.00;103792.03;6218547;23;20206;-88
2021/12/17 05:51:54;;;;;;;81.20;33.45;;;;;;;8.13;100.00;103793.75;6167648;23;20142;-88
2021/12/17 05:54:20;;;;;;;90.68;34.10;;;;;;;8.06;100.00;103778.03;6217956;23;20008;-88
2021/12/17 05:56:46;;;;;;;81.43;33.22;;;;;;;8.25;100.00;103808.94;6217500;23;20004;-88
2021/12/17 05:59:12;;;;;;;83.07;33.70;;;;;;;8.10;100.00;103778.63;6217418;23;20419;-88
2021/12/17 06:01:38;;;;;;;82.07;32.55;;;;;;;8.12;100.00;103776.66;6192760;23;20016;-87
2021/12/17 06:04:06;;;;;;;76.97;31.88;;;;;;;8.13;100.00;103778.38;6167883;23;20032;-88
2021/12/17 06:06:45;;;;;;;78.80;31.20;;;;;;;8.26;100.00;103813.38;6192714;23;20061;-87
2021/12/17 06:09:14;;;;;;;81.70;31.92;;;;;;;8.24;100.00;103816.22;6217635;23;20035;-87
2021/12/17 06:11:42;;;;;;;82.07;33.30;;;;;;;8.27;100.00;103812.41;6218129;23;20012;-88
2021/12/17 06:14:08;;;;;;;86.43;35.25;;;;;;;7.97;100.00;103770.69;6193102;23;20016;-88
2021/12/17 06:16:34;;;;;;;88.35;35.00;;;;;;;8.04;100.00;103796.22;6216563;23;20350;-88
2021/12/17 06:19:07;;;;;;;83.40;34.35;;;;;;;8.12;100.00;103814.53;6217450;23;20008;-87
2021/12/17 06:21:35;;;;;;;84.88;33.25;;;;;;;8.02;100.00;103790.09;6244446;23;20004;-87
2021/12/17 06:24:22;;;;;;;85.15;35.33;;;;;;;8.10;100.00;103802.97;6219433;23;20450;-87
2021/12/17 06:26:47;;;;;;;82.35;32.35;;;;;;;8.02;100.00;103800.06;6223720;23;20458;-87
2021/12/17 06:29:16;;;;;;;76.35;30.58;;;;;;;8.13;100.00;103831.63;6194364;23;20040;-87
2021/12/17 06:31:42;;;;;;;73.97;29.00;;;;;;;8.11;100.00;103833.59;6170822;23;20091;-88
2021/12/17 06:34:07;;;;;;;69.18;28.70;;;;;;;7.92;100.00;103805.34;6193804;23;20091;-87
2021/12/17 06:36:36;;;;;;;66.38;26.80;;;;;;;8.13;100.00;103834.31;6194549;23;20069;-88
2021/12/17 06:39:04;;;;;;;67.85;26.75;;;;;;;8.10;100.00;103832.72;6219284;23;20015;-88
2021/12/17 06:41:29;;;;;;;66.00;26.17;;;;;;;7.96;100.00;103806.81;6194370;23;20007;-88
2021/12/17 06:43:57;;;;;;;68.40;27.30;;;;;;;7.99;100.00;103816.53;6194236;23;20324;-86
2021/12/17 06:46:35;;;;;;;64.13;25.65;;;;;;;7.88;100.00;103804.75;6244897;23;20020;-89
2021/12/17 06:55:04;;;;;;;61.85;25.13;;;;;;;7.83;100.00;103773.66;6246575;23;20031;-89
2021/12/17 07:10:58;;;;;;;49.65;21.00;;;;;;;8.06;100.00;103812.31;6199242;23;20016;-88
2021/12/17 07:24:47;;;;;;;57.25;21.58;;;;;;;7.85;100.00;103790.59;6245642;23;20351;-87
2021/12/17 07:36:07;;;;;;;51.03;20.27;;;;;;;7.94;100.00;103787.13;6256505;23;20335;-90
2021/12/17 07:40:43;;;;;;;55.33;19.73;;;;;;;8.18;100.00;103826.66;6201719;23;20065;-89
2021/12/17 07:43:13;;;;;;;53.10;20.30;;;;;;;8.12;100.00;103822.66;6218090;23;20466;-89
2021/12/17 07:45:42;;;;;;;52.72;19.75;;;;;;;7.69;100.00;103764.84;6245023;23;20011;-89
2021/12/17 07:48:12;;;;;;;49.95;19.70;;;;;;;7.84;100.00;103791.56;6195677;23;20004;-90
2021/12/17 07:50:37;;;;;;;54.55;20.10;;;;;;;8.02;100.00;103825.25;6218583;23;20035;-89
2021/12/17 07:53:03;;;;;;;49.97;19.60;;;;;;;8.04;100.00;103827.81;6193370;23;20012;-89
2021/12/17 07:55:29;;;;;;;55.13;20.13;;;;;;;7.77;100.00;103783.13;6217984;23;20016;-89
2021/12/17 07:57:54;;;;;;;52.70;20.15;;;;;;;7.96;100.00;103803.22;6218314;23;20083;-89
2021/12/17 08:00:23;;;;;;;53.75;19.95;;;;;;;7.81;100.00;103770.22;6245121;23;20012;-89
2021/12/17 08:02:48;;;;;;;49.95;19.90;;;;;;;7.80;100.00;103758.53;6245234;23;20000;-89
2021/12/17 08:05:15;;;;;;;48.88;20.08;;;;;;;8.10;100.00;103800.25;6218475;23;20008;-89
2021/12/17 08:07:40;;;;;;;49.35;19.10;;;;;;;7.89;100.00;103760.50;6245378;23;20000;-89
2021/12/17 08:10:06;;;;;;;46.80;21.10;;;;;;;8.02;100.00;103781.97;6193669;23;20334;-89
2021/12/17 08:12:34;;;;;;;44.13;21.85;;;;;;;8.28;100.00;103834.91;6245363;23;20054;-89
2021/12/17 08:15:06;;;;;;;44.88;22.50;;;;;;;8.00;100.00;103781.25;6243584;23;20110;-89
2021/12/17 08:18:17;;;;;;;53.53;29.13;;;;;;;7.99;100.00;103767.84;6218173;23;20015;-90
2021/12/17 08:26:11;;;;;;;43.10;24.13;;;;;;;8.05;100.00;103806.06;6223342;23;20358;-89
2021/12/17 08:28:53;;;;;;;42.45;22.63;;;;;;;8.02;100.00;103798.19;6218307;23;20004;-90
2021/12/17 08:31:19;;;;;;;41.85;21.95;;;;;;;8.11;100.00;103809.25;6245342;23;20000;-89
2021/12/17 08:33:47;;;;;;;42.90;23.17;;;;;;;8.04;100.00;103814.28;6193655;23;20011;-89
2021/12/17 08:36:14;;;;;;;40.22;22.30;;;;;;;8.07;100.00;103833.84;6193693;23;20450;-89
2021/12/17 08:38:42;;;;;;;44.60;22.80;;;;;;;8.05;100.00;103832.25;6243926;23;20442;-90
2021/12/17 08:41:20;;;;;;;41.03;22.92;;;;;;;7.99;100.00;103816.53;6218804;23;20035;-89
2021/12/17 08:43:48;;;;;;;45.50;25.92;;;;;;;7.94;100.00;103825.00;6219122;23;20486;-90
2021/12/17 08:46:15;;;;;;;37.65;22.85;;;;;;;7.82;100.00;103804.38;6245761;23;20038;-90
2021/12/17 08:48:44;;;;;;;41.33;22.33;;;;;;;8.05;100.00;103840.38;6219214;23;20007;-90
2021/12/17 08:51:10;;;;;;;40.15;22.88;;;;;;;7.85;100.00;103806.81;6219725;22;20012;-89
2021/12/17 08:53:47;;;;;;;37.97;22.13;;;;;;;7.74;100.00;103777.97;6244816;23;20320;-90
2021/12/17 08:56:19;;;;;;;43.75;23.73;;;;;;;8.22;100.00;103857.91;6218896;23;20008;-89
2021/12/17 08:58:54;;;;;;;36.72;22.80;;;;;;;7.87;100.00;103788.66;6219250;23;20010;-89
2021/12/17 09:01:20;;;;;;;41.13;22.75;;;;;;;8.20;100.00;103825.56;6218555;23;20004;-90
2021/12/17 09:03:47;;;;;;;39.55;22.55;;;;;;;8.08;100.00;103813.06;6218500;23;20004;-89
2021/12/17 09:06:16;;;;;;;37.42;21.65;;;;;;;7.95;100.00;103785.31;6243522;23;20094;-89
2021/12/17 09:08:54;;;;;;;37.05;22.10;;;;;;;7.98;100.00;103788.63;6218390;23;20446;-89
2021/12/17 09:11:21;;;;;;;38.47;22.80;;;;;;;8.02;100.00;103789.25;6218305;23;20015;-89
2021/12/17 09:13:46;;;;;;;40.53;20.80;;;;;;;8.00;100.00;103796.59;6217927;23;20016;-89
2021/12/17 09:16:12;;;;;;;35.53;21.58;;;;;;;8.30;100.00;103838.31;6243492;23;20010;-89
2021/12/17 09:18:46;;;;;;;36.60;21.23;;;;;;;8.42;100.00;103859.81;6217986;23;20012;-89
2021/12/17 09:21:11;;;;;;;35.35;21.25;;;;;;;8.49;100.00;103859.34;6218349;23;20008;-89
2021/12/17 09:23:37;;;;;;;37.63;21.63;;;;;;;8.24;99.85;103832.44;6217736;23;20015;-89
2021/12/17 09:26:02;;;;;;;36.35;21.05;;;;;;;8.56;99.63;103879.50;6218096;23;20008;-89
2021/12/17 09:28:31;;;;;;;36.97;21.23;;;;;;;8.35;99.57;103853.19;6167311;23;20000;-89
2021/12/17 09:30:59;;;;;;;37.40;20.75;;;;;;;8.28;99.36;103832.19;6245079;23;20000;-89
2021/12/17 09:33:25;;;;;;;36.03;20.42;;;;;;;8.15;99.47;103819.69;6244802;23;20431;-89
2021/12/17 09:35:52;;;;;;;33.90;19.88;;;;;;;8.36;99.58;103876.56;6217887;23;20004;-89
2021/12/17 09:38:25;;;;;;;38.10;21.67;;;;;;;8.37;99.68;103877.41;6244326;23;20474;-89
2021/12/17 09:40:54;;;;;;;37.83;21.30;;;;;;;8.08;99.70;103827.44;6217767;23;20032;-89
2021/12/17 09:43:23;;;;;;;38.60;20.50;;;;;;;8.51;99.71;103900.69;6218011;23;20011;-89
2021/12/17 09:45:51;;;;;;;39.70;20.85;;;;;;;8.36;99.66;103876.56;6217516;23;20004;-89
2021/12/17 09:48:20;;;;;;;37.25;21.17;;;;;;;8.32;99.76;103863.41;6217703;23;20339;-88
2021/12/17 09:50:52;;;;;;;40.30;21.23;;;;;;;8.23;99.80;103846.94;6244696;23;20000;-89
2021/12/17 09:53:18;;;;;;;;;;;;;;;8.72;99.67;103908.84;6218610;23;20000;-89
2021/12/17 09:55:46;;;;;;;37.80;21.20;;;;;;;8.53;99.69;103894.16;6218699;23;20243;-89
2021/12/17 09:58:11;;;;;;;39.00;21.67;;;;;;;8.30;99.45;103852.72;6194893;23;20008;-89
2021/12/17 10:00:37;;;;;;;35.53;20.75;;;;;;;8.59;99.28;103895.47;6222364;23;20000;-90
2021/12/17 10:03:07;;;;;;;39.00;21.73;;;;;;;8.61;100.00;103898.94;6219665;23;20030;-89
2021/12/17 10:05:38;;;;;;;38.88;20.98;;;;;;;8.29;99.22;103844.75;6219746;23;20004;-89
2021/12/17 10:08:10;;;;;;;36.67;20.67;;;;;;;8.33;99.57;103852.47;6219876;23;20004;-89
2021/12/17 10:10:44;;;;;;;40.05;21.65;;;;;;;8.43;99.31;103866.09;6247275;23;20430;-90
2021/12/17 10:13:21;;;;;;;39.47;22.02;;;;;;;8.65;99.71;103891.41;6219824;23;20023;-89
2021/12/17 10:15:54;;;;;;;34.40;20.83;;;;;;;8.46;99.73;103851.47;6246737;23;20012;-89
2021/12/17 10:18:40;;;;;;;37.80;20.33;;;;;;;8.48;99.07;103854.94;6219874;23;20498;-89
2021/12/17 10:21:07;;;;;;;37.85;21.08;;;;;;;8.64;99.15;103878.88;6219835;23;20079;-89
2021/12/17 10:23:34;;;;;;;36.03;20.02;;;;;;;8.81;98.69;103916.19;6219286;23;20012;-89
2021/12/17 10:26:06;;;;;;;38.58;21.23;;;;;;;8.59;98.88;103863.00;6194460;23;20454;-89
2021/12/17 10:28:31;;;;;;;36.20;20.00;;;;;;;8.74;98.96;103879.78;6219610;23;20004;-90
2021/12/17 10:30:58;;;;;;;35.40;19.70;;;;;;;8.66;98.76;103850.66;6220755;23;20019;-89
2021/12/17 10:33:29;;;;;;;36.80;20.33;;;;;;;8.91;98.89;103895.47;6219838;23;20011;-90
2021/12/17 10:35:57;;;;;;;33.10;19.20;;;;;;;8.96;98.16;103900.50;6246597;23;20011;-89
2021/12/17 10:38:26;;;;;;;33.55;19.25;;;;;;;8.83;97.67;103888.97;6219647;23;20027;-89
2021/12/17 10:41:05;;;;;;;34.20;19.05;;;;;;;8.74;97.73;103871.66;6219910;23;20004;-89
2021/12/17 10:43:38;;;;;;;36.03;20.30;;;;;;;8.64;97.90;103858.06;6246445;23;20059;-89
2021/12/17 10:51:24;;;;;;;33.95;19.02;;;;;;;8.84;98.03;103866.34;6245838;23;20008;-87
2021/12/17 10:53:56;;;;;;;36.55;19.15;;;;;;;9.08;98.10;103914.84;6245957;23;20394;-87
2021/12/17 10:56:51;;;;;;;34.10;17.90;;;;;;;8.64;97.45;103844.53;6247802;23;20014;-87
2021/12/17 10:59:31;;;;;;;30.77;16.02;;;;;;;9.11;97.69;103922.75;6219144;23;20035;-87
2021/12/17 11:02:01;;;;;;;29.20;15.43;;;;;;;8.72;97.36;103860.13;6245987;23;20502;-87
2021/12/17 11:04:28;;;;;;;32.08;15.35;;;;;;;9.12;97.52;103929.84;6246256;23;20374;-87
2021/12/17 11:07:07;;;;;;;31.25;15.20;;;;;;;8.92;97.45;103880.94;6245658;23;20004;-87
2021/12/17 11:09:37;;;;;;;27.55;13.38;;;;;;;8.88;97.37;103878.63;6194312;23;20008;-87
2021/12/17 11:12:22;;;;;;;25.60;13.00;;;;;;;9.29;97.21;103925.72;6245338;23;20027;-87
2021/12/17 11:14:49;;;;;;;25.60;12.27;;;;;;;9.06;97.10;103895.16;6229691;23;20024;-87
2021/12/17 11:17:23;;;;;;;25.20;12.25;;;;;;;9.25;96.72;103900.72;6245874;22;20008;-88
2021/12/17 11:19:55;;;;;;;26.92;13.27;;;;;;;9.16;96.38;103889.84;6246219;23;20000;-88
2021/12/17 11:22:26;;;;;;;25.90;12.60;;;;;;;9.33;95.96;103904.63;6219143;23;20008;-88
2021/12/17 11:24:52;;;;;;;26.40;12.85;;;;;;;9.19;96.18;103879.59;6218350;23;20003;-88
2021/12/17 11:27:20;;;;;;;27.38;12.95;;;;;;;9.08;95.81;103861.56;6217852;23;20035;-88
2021/12/17 11:29:45;;;;;;;28.98;13.65;;;;;;;9.11;96.09;103846.91;6193021;23;20382;-88
2021/12/17 11:32:12;;;;;;;28.15;13.57;;;;;;;9.20;95.68;103854.22;6245599;23;20008;-88
2021/12/17 11:34:40;;;;;;;27.88;12.68;;;;;;;9.13;95.37;103843.03;6194132;23;20018;-88
2021/12/17 11:37:10;;;;;;;27.70;12.70;;;;;;;9.08;95.15;103836.28;6219201;23;20094;-88
2021/12/17 11:39:44;;;;;;;26.02;12.98;;;;;;;9.08;95.13;103837.19;6219235;23;20439;-87
2021/12/17 11:42:32;;;;;;;25.65;13.32;;;;;;;9.52;95.50;103895.75;6223371;23;20004;-92
2021/12/17 11:47:47;;;;;;;26.77;13.07;;;;;;;9.78;95.59;103877.22;6249586;23;20114;-90
2021/12/17 11:50:16;;;;;;;27.42;13.25;;;;;;;9.53;93.91;103816.16;6197605;23;20008;-87
2021/12/17 11:52:57;;;;;;;23.08;11.80;;;;;;;9.68;93.41;103800.41;6221505;23;20343;-92
2021/12/17 12:02:22;;;;;;;27.08;12.88;;;;;;;9.79;92.81;103841.81;6249596;23;20056;-87
2021/12/17 12:05:01;;;;;;;26.08;12.80;;;;;;;9.96;92.90;103867.41;6217984;23;20458;-88
2021/12/17 12:07:28;;;;;;;24.33;11.85;;;;;;;9.91;92.46;103866.97;6218642;23;20065;-88
2021/12/17 12:10:13;;;;;;;24.77;12.60;;;;;;;9.91;93.26;103868.84;6219309;23;20008;-89
2021/12/17 12:12:45;;;;;;;25.10;13.05;;;;;;;9.86;93.54;103871.09;6217571;23;20004;-87
2021/12/17 12:15:16;;;;;;;22.55;12.43;;;;;;;9.78;93.13;103880.78;6218081;23;20015;-87
2021/12/17 12:17:57;;;;;;;23.02;12.23;;;;;;;9.73;93.49;103885.75;6245232;23;20011;-87
2021/12/17 12:20:50;;;;;;;23.08;11.77;;;;;;;9.73;93.91;103887.59;6218124;23;20008;-88
2021/12/17 12:23:20;;;;;;;23.08;12.23;;;;;;;9.64;93.39;103887.44;6218115;23;20097;-87
2021/12/17 12:26:11;;;;;;;21.05;11.25;;;;;;;9.26;93.12;103833.88;6245406;23;20004;-87
2021/12/17 12:28:49;;;;;;;22.20;11.68;;;;;;;9.54;93.82;103886.50;6218695;23;20309;-87
2021/12/17 12:31:22;;;;;;;20.70;11.35;;;;;;;9.46;93.66;103883.59;6218738;23;20008;-87
2021/12/17 12:34:04;;;;;;;23.05;12.38;;;;;;;9.46;94.25;103886.31;6218459;23;20011;-87
2021/12/17 12:36:50;;;;;;;21.55;12.38;;;;;;;9.40;94.24;103876.84;6245466;23;20377;-88
2021/12/17 12:39:43;;;;;;;21.88;12.57;;;;;;;9.45;94.60;103877.34;6244511;23;20000;-87
2021/12/17 12:42:19;;;;;;;21.10;11.60;;;;;;;9.39;94.75;103877.00;6208715;23;20008;-87
2021/12/17 12:44:44;;;;;;;22.85;12.32;;;;;;;9.35;94.51;103873.69;6245192;23;20312;-87
2021/12/17 12:47:26;;;;;;;21.83;12.60;;;;;;;9.29;94.05;103860.69;6245205;23;20027;-86
2021/12/17 12:50:14;;;;;;;23.55;12.52;;;;;;;9.32;94.72;103868.56;6245034;23;20035;-85
2021/12/17 12:52:50;;;;;;;23.65;12.25;;;;;;;9.39;94.81;103863.44;6205946;23;20077;-86
2021/12/17 12:56:02;;;;;;;20.50;10.73;;;;;;;9.12;93.63;103832.34;6220113;23;20503;-90
2021/12/17 12:58:31;;;;;;;18.85;10.40;;;;;;;8.92;93.47;103805.13;6244962;23;20008;-90
2021/12/17 13:01:00;;;;;;;19.48;9.95;;;;;;;9.13;93.90;103840.31;6220559;23;20060;-90
2021/12/17 13:03:37;;;;;;;16.73;9.77;;;;;;;9.26;93.55;103860.97;6195713;23;20012;-91
2021/12/17 13:06:17;;;;;;;17.48;9.20;;;;;;;9.14;93.91;103838.50;6220158;23;20004;-91
2021/12/17 13:08:54;;;;;;;17.58;8.85;;;;;;;8.87;93.91;103801.97;6220675;23;20066;-90
2021/12/17 13:11:27;;;;;;;12.40;7.60;;;;;;;9.05;93.65;103845.56;6219987;23;20324;-90
2021/12/17 13:13:59;;;;;;;12.90;7.43;;;;;;;9.04;92.72;103837.56;6194951;23;20099;-90
2021/12/17 13:17:06;;;;;;;13.60;8.25;;;;;;;8.99;92.95;103846.09;6195302;23;20012;-90
2021/12/17 13:22:40;;;;;;;17.65;10.18;;;;;;;8.65;92.80;103810.19;6246512;23;20019;-90
2021/12/17 13:25:01;;;;;;;18.73;10.57;;;;;;;8.62;92.60;103805.03;6203813;23;20018;-91
2021/12/17 13:27:27;;;;;;;16.52;9.32;;;;;;;8.53;92.75;103793.16;6218287;23;20083;-86
2021/12/17 13:29:58;;;;;;;19.00;9.75;;;;;;;8.79;93.24;103847.78;6218075;23;20004;-88
2021/12/17 13:32:25;;;;;;;17.02;10.15;;;;;;;8.55;92.08;103807.44;6217538;23;20316;-87
2021/12/17 13:34:56;;;;;;;18.02;10.20;;;;;;;8.69;92.50;103836.88;6218170;23;20008;-87
2021/12/17 13:37:34;;;;;;;19.20;10.43;;;;;;;8.52;92.76;103813.94;6192659;23;20015;-87
2021/12/17 13:40:09;;;;;;;20.08;10.73;;;;;;;8.52;92.97;103829.31;6244035;22;20004;-87
2021/12/17 13:42:47;;;;;;;19.20;10.35;;;;;;;8.76;92.65;103862.44;6217441;23;20318;-87
2021/12/17 13:45:16;;;;;;;16.27;9.65;;;;;;;8.49;92.30;103824.16;6244431;23;20376;-87
2021/12/17 13:47:45;;;;;;;17.58;9.80;;;;;;;8.35;92.63;103804.50;6216423;23;20000;-87
2021/12/17 13:50:12;;;;;;;17.15;10.02;;;;;;;8.72;92.99;103855.56;6244297;23;20027;-87
2021/12/17 13:52:53;;;;;;;17.17;9.68;;;;;;;8.43;93.23;103802.00;6217553;23;20004;-88
2021/12/17 13:55:27;;;;;;;13.52;7.68;;;;;;;8.38;92.71;103790.69;6217655;23;20004;-87
2021/12/17 13:57:57;;;;;;;9.38;6.50;;;;;;;8.36;92.44;103802.66;6217639;23;20011;-87
2021/12/17 14:00:39;;;;;;;9.73;6.10;;;;;;;8.52;93.70;103835.59;6217561;23;20004;-87
2021/12/17 14:03:09;;;;;;;11.18;6.07;;;;;;;8.30;92.75;103805.84;6244398;23;20027;-87
2021/12/17 14:05:49;;;;;;;10.13;5.65;;;;;;;8.22;92.91;103798.38;6217063;23;20035;-87
2021/12/17 14:08:17;;;;;;;8.32;5.63;;;;;;;8.33;94.07;103821.88;6217793;23;20007;-89
2021/12/17 14:10:48;;;;;;;6.95;5.40;;;;;;;8.50;93.41;103861.91;6217468;23;20000;-87
2021/12/17 14:13:25;;;;;;;8.23;5.60;;;;;;;8.21;93.52;103808.34;6192858;23;20027;-87
2021/12/17 14:15:54;;;;;;;8.68;5.22;;;;;;;8.47;93.31;103847.78;6217422;23;20008;-87
2021/12/17 14:18:27;;;;;;;7.32;4.40;;;;;;;8.16;92.74;103798.91;6217510;23;20334;-87
2021/12/17 14:21:01;;;;;;;6.53;4.40;;;;;;;8.39;93.52;103840.28;6218027;23;20014;-87
2021/12/17 14:23:29;;;;;;;7.40;4.82;;;;;;;8.22;93.38;103814.63;6243842;23;20103;-87
2021/12/17 14:26:07;;;;;;;6.40;4.20;;;;;;;8.48;93.54;103869.31;6193247;23;20012;-87